sensor_id;sensor_type;location;lat;lon;timestamp;P1;durP1;ratioP1;P2;durP2;ratioP2
68583;SDS011;55557;49.220;11.150;2023-05-29T00:00:16;7.40;;;4.97;;
68583;SDS011;55557;49.220;11.150;2023-05-29T00:02:42;6.57;;;4.37;;
68583;SDS011;55557;49.220;11.150;2023-05-29T00:05:09;9.13;;;4.87;;
68583;SDS011;55557;49.220;11.150;2023-05-29T00:07:37;6.50;;;4.10;;
68583;SDS011;55557;49.220;11.150;2023-05-29T00:10:03;7.10;;;4.30;;
68583;SDS011;55557;49.220;11.150;2023-05-29T00:12:29;9.40;;;4.27;;
68583;SDS011;55557;49.220;11.150;2023-05-29T00:14:55;5.40;;;4.27;;
68583;SDS011;55557;49.220;11.150;2023-05-29T00:17:22;6.00;;;3.93;;
68583;SDS011;55557;49.220;11.150;2023-05-29T00:19:48;7.97;;;4.63;;
68583;SDS011;55557;49.220;11.150;2023-05-29T00:22:14;7.93;;;4.53;;
68583;SDS011;55557;49.220;11.150;2023-05-29T00:24:40;7.03;;;4.30;;
68583;SDS011;55557;49.220;11.150;2023-05-29T00:27:06;8.50;;;4.60;;
68583;SDS011;55557;49.220;11.150;2023-05-29T00:29:33;8.60;;;4.83;;
68583;SDS011;55557;49.220;11.150;2023-05-29T00:32:00;7.33;;;4.57;;
68583;SDS011;55557;49.220;11.150;2023-05-29T00:34:26;10.63;;;5.30;;
68583;SDS011;55557;49.220;11.150;2023-05-29T00:36:52;10.07;;;4.67;;
68583;SDS011;55557;49.220;11.150;2023-05-29T00:39:20;11.13;;;5.33;;
68583;SDS011;55557;49.220;11.150;2023-05-29T00:41:46;7.67;;;5.50;;
68583;SDS011;55557;49.220;11.150;2023-05-29T00:44:16;8.03;;;4.43;;
68583;SDS011;55557;49.220;11.150;2023-05-29T00:46:42;6.57;;;4.37;;
68583;SDS011;55557;49.220;11.150;2023-05-29T00:49:08;6.60;;;4.47;;
68583;SDS011;55557;49.220;11.150;2023-05-29T00:51:34;7.60;;;4.83;;
68583;SDS011;55557;49.220;11.150;2023-05-29T00:54:01;8.30;;;5.03;;
68583;SDS011;55557;49.220;11.150;2023-05-29T00:56:27;6.70;;;4.77;;
68583;SDS011;55557;49.220;11.150;2023-05-29T00:58:53;9.23;;;5.13;;
68583;SDS011;55557;49.220;11.150;2023-05-29T01:01:19;8.70;;;5.17;;
68583;SDS011;55557;49.220;11.150;2023-05-29T01:03:49;10.27;;;5.23;;
68583;SDS011;55557;49.220;11.150;2023-05-29T01:06:18;7.60;;;5.13;;
68583;SDS011;55557;49.220;11.150;2023-05-29T01:08:45;8.17;;;5.03;;
68583;SDS011;55557;49.220;11.150;2023-05-29T01:11:23;5.97;;;4.70;;
68583;SDS011;55557;49.220;11.150;2023-05-29T01:13:52;7.17;;;4.57;;
68583;SDS011;55557;49.220;11.150;2023-05-29T01:16:31;7.70;;;5.20;;
68583;SDS011;55557;49.220;11.150;2023-05-29T01:26:47;6.23;;;4.23;;
68583;SDS011;55557;49.220;11.150;2023-05-29T01:29:16;6.57;;;4.43;;
68583;SDS011;55557;49.220;11.150;2023-05-29T01:31:44;7.07;;;4.40;;
68583;SDS011;55557;49.220;11.150;2023-05-29T01:34:11;10.20;;;4.87;;
68583;SDS011;55557;49.220;11.150;2023-05-29T01:36:37;7.63;;;3.70;;
68583;SDS011;55557;49.220;11.150;2023-05-29T01:39:03;7.87;;;4.63;;
68583;SDS011;55557;49.220;11.150;2023-05-29T01:41:30;5.90;;;4.10;;
68583;SDS011;55557;49.220;11.150;2023-05-29T01:43:57;7.50;;;4.57;;
68583;SDS011;55557;49.220;11.150;2023-05-29T01:46:24;5.80;;;4.53;;
68583;SDS011;55557;49.220;11.150;2023-05-29T01:48:50;8.27;;;4.73;;
68583;SDS011;55557;49.220;11.150;2023-05-29T01:51:17;6.80;;;4.07;;
68583;SDS011;55557;49.220;11.150;2023-05-29T01:53:43;6.00;;;3.80;;
68583;SDS011;55557;49.220;11.150;2023-05-29T01:56:09;6.43;;;4.77;;
68583;SDS011;55557;49.220;11.150;2023-05-29T01:58:35;8.63;;;4.13;;
68583;SDS011;55557;49.220;11.150;2023-05-29T02:01:02;7.33;;;4.30;;
68583;SDS011;55557;49.220;11.150;2023-05-29T02:03:31;7.53;;;4.07;;
68583;SDS011;55557;49.220;11.150;2023-05-29T02:05:58;6.67;;;4.43;;
68583;SDS011;55557;49.220;11.150;2023-05-29T02:08:24;6.10;;;4.43;;
68583;SDS011;55557;49.220;11.150;2023-05-29T02:10:50;11.33;;;4.90;;
68583;SDS011;55557;49.220;11.150;2023-05-29T02:13:16;7.10;;;4.37;;
68583;SDS011;55557;49.220;11.150;2023-05-29T02:15:43;7.77;;;4.77;;
68583;SDS011;55557;49.220;11.150;2023-05-29T02:18:09;6.23;;;4.03;;
68583;SDS011;55557;49.220;11.150;2023-05-29T02:20:37;5.47;;;4.17;;
68583;SDS011;55557;49.220;11.150;2023-05-29T02:23:03;7.97;;;4.63;;
68583;SDS011;55557;49.220;11.150;2023-05-29T02:25:29;7.20;;;4.73;;
68583;SDS011;55557;49.220;11.150;2023-05-29T02:27:55;7.90;;;4.23;;
68583;SDS011;55557;49.220;11.150;2023-05-29T02:30:21;8.30;;;4.50;;
68583;SDS011;55557;49.220;11.150;2023-05-29T02:32:47;6.60;;;4.47;;
68583;SDS011;55557;49.220;11.150;2023-05-29T02:35:13;7.93;;;4.33;;
68583;SDS011;55557;49.220;11.150;2023-05-29T02:37:40;6.13;;;4.07;;
68583;SDS011;55557;49.220;11.150;2023-05-29T02:40:06;5.60;;;4.27;;
68583;SDS011;55557;49.220;11.150;2023-05-29T02:42:35;8.93;;;4.47;;
68583;SDS011;55557;49.220;11.150;2023-05-29T02:45:02;6.00;;;4.20;;
68583;SDS011;55557;49.220;11.150;2023-05-29T02:47:28;8.70;;;4.87;;
68583;SDS011;55557;49.220;11.150;2023-05-29T02:49:54;5.60;;;4.03;;
68583;SDS011;55557;49.220;11.150;2023-05-29T02:52:20;7.63;;;4.13;;
68583;SDS011;55557;49.220;11.150;2023-05-29T02:54:48;6.90;;;4.17;;
68583;SDS011;55557;49.220;11.150;2023-05-29T02:57:14;7.43;;;4.33;;
68583;SDS011;55557;49.220;11.150;2023-05-29T02:59:40;9.90;;;5.00;;
68583;SDS011;55557;49.220;11.150;2023-05-29T03:02:06;10.93;;;5.17;;
68583;SDS011;55557;49.220;11.150;2023-05-29T03:04:32;6.17;;;3.70;;
68583;SDS011;55557;49.220;11.150;2023-05-29T03:06:58;7.57;;;4.10;;
68583;SDS011;55557;49.220;11.150;2023-05-29T03:09:24;8.33;;;4.43;;
68583;SDS011;55557;49.220;11.150;2023-05-29T03:11:50;11.50;;;4.63;;
68583;SDS011;55557;49.220;11.150;2023-05-29T03:14:17;10.53;;;4.43;;
68583;SDS011;55557;49.220;11.150;2023-05-29T03:16:43;8.20;;;4.53;;
68583;SDS011;55557;49.220;11.150;2023-05-29T03:19:10;7.17;;;4.40;;
68583;SDS011;55557;49.220;11.150;2023-05-29T03:21:36;8.43;;;4.97;;
68583;SDS011;55557;49.220;11.150;2023-05-29T03:24:02;5.83;;;3.80;;
68583;SDS011;55557;49.220;11.150;2023-05-29T03:26:28;9.47;;;4.43;;
68583;SDS011;55557;49.220;11.150;2023-05-29T03:28:54;7.27;;;4.60;;
68583;SDS011;55557;49.220;11.150;2023-05-29T03:31:20;5.03;;;3.90;;
68583;SDS011;55557;49.220;11.150;2023-05-29T03:33:47;8.07;;;4.60;;
68583;SDS011;55557;49.220;11.150;2023-05-29T03:36:13;5.40;;;3.97;;
68583;SDS011;55557;49.220;11.150;2023-05-29T03:38:42;8.80;;;3.60;;
68583;SDS011;55557;49.220;11.150;2023-05-29T03:41:07;6.07;;;4.40;;
68583;SDS011;55557;49.220;11.150;2023-05-29T03:43:33;7.30;;;4.30;;
68583;SDS011;55557;49.220;11.150;2023-05-29T03:45:59;6.87;;;4.13;;
68583;SDS011;55557;49.220;11.150;2023-05-29T03:48:25;8.80;;;4.60;;
68583;SDS011;55557;49.220;11.150;2023-05-29T03:50:51;7.07;;;4.07;;
68583;SDS011;55557;49.220;11.150;2023-05-29T03:53:17;6.43;;;4.30;;
68583;SDS011;55557;49.220;11.150;2023-05-29T03:55:43;5.90;;;4.50;;
68583;SDS011;55557;49.220;11.150;2023-05-29T03:58:09;8.67;;;4.43;;
68583;SDS011;55557;49.220;11.150;2023-05-29T04:00:37;4.63;;;3.40;;
68583;SDS011;55557;49.220;11.150;2023-05-29T04:03:03;7.03;;;4.03;;
68583;SDS011;55557;49.220;11.150;2023-05-29T04:05:29;7.60;;;4.20;;
68583;SDS011;55557;49.220;11.150;2023-05-29T04:07:55;8.53;;;4.53;;
68583;SDS011;55557;49.220;11.150;2023-05-29T04:10:21;5.60;;;4.07;;
68583;SDS011;55557;49.220;11.150;2023-05-29T04:12:49;5.40;;;4.00;;
68583;SDS011;55557;49.220;11.150;2023-05-29T04:15:15;6.50;;;3.90;;
68583;SDS011;55557;49.220;11.150;2023-05-29T04:17:41;7.07;;;4.40;;
68583;SDS011;55557;49.220;11.150;2023-05-29T04:20:07;10.00;;;3.93;;
68583;SDS011;55557;49.220;11.150;2023-05-29T04:22:37;6.20;;;4.50;;
68583;SDS011;55557;49.220;11.150;2023-05-29T04:25:03;7.53;;;4.67;;
68583;SDS011;55557;49.220;11.150;2023-05-29T04:27:32;6.77;;;4.10;;
68583;SDS011;55557;49.220;11.150;2023-05-29T04:30:02;5.53;;;4.17;;
68583;SDS011;55557;49.220;11.150;2023-05-29T04:32:28;8.57;;;4.37;;
68583;SDS011;55557;49.220;11.150;2023-05-29T04:34:54;6.40;;;4.03;;
68583;SDS011;55557;49.220;11.150;2023-05-29T04:37:20;6.70;;;3.83;;
68583;SDS011;55557;49.220;11.150;2023-05-29T04:39:53;9.07;;;4.33;;
68583;SDS011;55557;49.220;11.150;2023-05-29T04:42:20;6.37;;;4.33;;
68583;SDS011;55557;49.220;11.150;2023-05-29T04:44:47;8.07;;;4.43;;
68583;SDS011;55557;49.220;11.150;2023-05-29T04:47:14;5.97;;;4.23;;
68583;SDS011;55557;49.220;11.150;2023-05-29T04:49:41;6.07;;;4.37;;
68583;SDS011;55557;49.220;11.150;2023-05-29T04:52:07;6.50;;;4.47;;
68583;SDS011;55557;49.220;11.150;2023-05-29T04:54:34;7.47;;;4.00;;
68583;SDS011;55557;49.220;11.150;2023-05-29T04:57:00;10.17;;;5.03;;
68583;SDS011;55557;49.220;11.150;2023-05-29T04:59:26;11.53;;;5.07;;
68583;SDS011;55557;49.220;11.150;2023-05-29T05:01:52;9.10;;;4.87;;
68583;SDS011;55557;49.220;11.150;2023-05-29T05:04:18;11.10;;;4.93;;
68583;SDS011;55557;49.220;11.150;2023-05-29T05:06:44;8.97;;;4.27;;
68583;SDS011;55557;49.220;11.150;2023-05-29T05:09:10;7.20;;;4.73;;
68583;SDS011;55557;49.220;11.150;2023-05-29T05:11:37;7.30;;;4.43;;
68583;SDS011;55557;49.220;11.150;2023-05-29T05:14:03;7.43;;;4.00;;
68583;SDS011;55557;49.220;11.150;2023-05-29T05:16:29;7.37;;;4.67;;
68583;SDS011;55557;49.220;11.150;2023-05-29T05:18:55;11.87;;;4.60;;
68583;SDS011;55557;49.220;11.150;2023-05-29T05:21:21;8.38;;;5.15;;
68583;SDS011;55557;49.220;11.150;2023-05-29T05:23:47;7.90;;;4.73;;
68583;SDS011;55557;49.220;11.150;2023-05-29T05:26:13;8.93;;;4.50;;
68583;SDS011;55557;49.220;11.150;2023-05-29T05:28:39;10.87;;;4.73;;
68583;SDS011;55557;49.220;11.150;2023-05-29T05:31:05;4.80;;;4.23;;
68583;SDS011;55557;49.220;11.150;2023-05-29T05:33:31;7.13;;;4.33;;
68583;SDS011;55557;49.220;11.150;2023-05-29T05:35:57;6.83;;;4.40;;
68583;SDS011;55557;49.220;11.150;2023-05-29T05:38:23;12.03;;;5.23;;
68583;SDS011;55557;49.220;11.150;2023-05-29T05:40:49;6.07;;;4.07;;
68583;SDS011;55557;49.220;11.150;2023-05-29T05:43:16;8.90;;;4.17;;
68583;SDS011;55557;49.220;11.150;2023-05-29T05:45:42;6.00;;;3.50;;
68583;SDS011;55557;49.220;11.150;2023-05-29T05:48:09;7.73;;;4.00;;
68583;SDS011;55557;49.220;11.150;2023-05-29T05:50:35;7.97;;;3.37;;
68583;SDS011;55557;49.220;11.150;2023-05-29T05:53:01;6.67;;;3.70;;
68583;SDS011;55557;49.220;11.150;2023-05-29T05:55:27;9.57;;;3.60;;
68583;SDS011;55557;49.220;11.150;2023-05-29T05:57:53;6.67;;;3.63;;
68583;SDS011;55557;49.220;11.150;2023-05-29T06:00:21;6.23;;;3.60;;
68583;SDS011;55557;49.220;11.150;2023-05-29T06:02:47;6.30;;;3.87;;
68583;SDS011;55557;49.220;11.150;2023-05-29T06:05:13;8.67;;;3.50;;
68583;SDS011;55557;49.220;11.150;2023-05-29T06:07:40;4.90;;;3.70;;
68583;SDS011;55557;49.220;11.150;2023-05-29T06:10:06;7.33;;;3.53;;
68583;SDS011;55557;49.220;11.150;2023-05-29T06:12:32;7.73;;;3.63;;
68583;SDS011;55557;49.220;11.150;2023-05-29T06:14:59;6.13;;;3.00;;
68583;SDS011;55557;49.220;11.150;2023-05-29T06:17:25;5.33;;;3.10;;
68583;SDS011;55557;49.220;11.150;2023-05-29T06:19:51;8.60;;;3.60;;
68583;SDS011;55557;49.220;11.150;2023-05-29T06:22:18;4.47;;;3.20;;
68583;SDS011;55557;49.220;11.150;2023-05-29T06:24:44;9.03;;;2.70;;
68583;SDS011;55557;49.220;11.150;2023-05-29T06:27:10;5.13;;;3.47;;
68583;SDS011;55557;49.220;11.150;2023-05-29T06:29:36;7.60;;;3.33;;
68583;SDS011;55557;49.220;11.150;2023-05-29T06:32:02;7.63;;;3.40;;
68583;SDS011;55557;49.220;11.150;2023-05-29T06:34:28;5.07;;;2.83;;
68583;SDS011;55557;49.220;11.150;2023-05-29T06:36:54;5.83;;;3.53;;
68583;SDS011;55557;49.220;11.150;2023-05-29T06:39:20;5.00;;;3.30;;
68583;SDS011;55557;49.220;11.150;2023-05-29T06:41:46;5.37;;;3.13;;
68583;SDS011;55557;49.220;11.150;2023-05-29T06:44:12;5.37;;;2.97;;
68583;SDS011;55557;49.220;11.150;2023-05-29T06:46:38;5.07;;;2.83;;
68583;SDS011;55557;49.220;11.150;2023-05-29T06:49:05;3.77;;;2.87;;
68583;SDS011;55557;49.220;11.150;2023-05-29T06:51:31;3.03;;;2.50;;
68583;SDS011;55557;49.220;11.150;2023-05-29T06:53:57;6.07;;;3.13;;
68583;SDS011;55557;49.220;11.150;2023-05-29T06:56:23;3.73;;;2.70;;
68583;SDS011;55557;49.220;11.150;2023-05-29T06:58:50;4.33;;;2.60;;
68583;SDS011;55557;49.220;11.150;2023-05-29T07:01:16;4.20;;;2.90;;
68583;SDS011;55557;49.220;11.150;2023-05-29T07:03:42;6.83;;;2.67;;
68583;SDS011;55557;49.220;11.150;2023-05-29T07:06:08;8.43;;;3.70;;
68583;SDS011;55557;49.220;11.150;2023-05-29T07:08:35;6.60;;;2.97;;
68583;SDS011;55557;49.220;11.150;2023-05-29T07:11:01;4.03;;;2.47;;
68583;SDS011;55557;49.220;11.150;2023-05-29T07:13:27;6.80;;;2.70;;
68583;SDS011;55557;49.220;11.150;2023-05-29T07:15:53;5.57;;;2.57;;
68583;SDS011;55557;49.220;11.150;2023-05-29T07:18:19;4.67;;;2.57;;
68583;SDS011;55557;49.220;11.150;2023-05-29T07:20:45;4.00;;;2.33;;
68583;SDS011;55557;49.220;11.150;2023-05-29T07:23:11;4.70;;;2.33;;
68583;SDS011;55557;49.220;11.150;2023-05-29T07:25:37;3.43;;;2.17;;
68583;SDS011;55557;49.220;11.150;2023-05-29T07:28:03;2.57;;;1.70;;
68583;SDS011;55557;49.220;11.150;2023-05-29T07:30:29;4.23;;;2.70;;
68583;SDS011;55557;49.220;11.150;2023-05-29T07:32:55;5.47;;;2.60;;
68583;SDS011;55557;49.220;11.150;2023-05-29T07:35:21;2.37;;;2.00;;
68583;SDS011;55557;49.220;11.150;2023-05-29T07:37:47;5.17;;;2.47;;
68583;SDS011;55557;49.220;11.150;2023-05-29T07:40:14;5.27;;;2.57;;
68583;SDS011;55557;49.220;11.150;2023-05-29T07:42:40;5.60;;;2.20;;
68583;SDS011;55557;49.220;11.150;2023-05-29T07:45:06;4.20;;;2.60;;
68583;SDS011;55557;49.220;11.150;2023-05-29T07:47:32;5.03;;;2.50;;
68583;SDS011;55557;49.220;11.150;2023-05-29T07:49:58;5.17;;;2.43;;
68583;SDS011;55557;49.220;11.150;2023-05-29T07:52:24;4.57;;;2.30;;
68583;SDS011;55557;49.220;11.150;2023-05-29T07:54:50;3.20;;;2.20;;
68583;SDS011;55557;49.220;11.150;2023-05-29T07:57:16;6.87;;;2.57;;
68583;SDS011;55557;49.220;11.150;2023-05-29T07:59:42;2.87;;;2.33;;
68583;SDS011;55557;49.220;11.150;2023-05-29T08:02:09;5.47;;;2.83;;
68583;SDS011;55557;49.220;11.150;2023-05-29T08:04:35;5.73;;;2.77;;
68583;SDS011;55557;49.220;11.150;2023-05-29T08:07:02;4.50;;;2.60;;
68583;SDS011;55557;49.220;11.150;2023-05-29T08:09:31;6.87;;;2.47;;
68583;SDS011;55557;49.220;11.150;2023-05-29T08:11:57;2.87;;;2.23;;
68583;SDS011;55557;49.220;11.150;2023-05-29T08:14:25;6.83;;;2.40;;
68583;SDS011;55557;49.220;11.150;2023-05-29T08:16:51;3.97;;;2.60;;
68583;SDS011;55557;49.220;11.150;2023-05-29T08:19:17;6.93;;;2.53;;
68583;SDS011;55557;49.220;11.150;2023-05-29T08:21:43;4.40;;;3.00;;
68583;SDS011;55557;49.220;11.150;2023-05-29T08:24:09;3.73;;;2.33;;
68583;SDS011;55557;49.220;11.150;2023-05-29T08:26:35;3.63;;;2.37;;
68583;SDS011;55557;49.220;11.150;2023-05-29T08:29:01;4.27;;;2.27;;
68583;SDS011;55557;49.220;11.150;2023-05-29T08:31:27;2.83;;;2.00;;
68583;SDS011;55557;49.220;11.150;2023-05-29T08:33:53;3.00;;;1.93;;
68583;SDS011;55557;49.220;11.150;2023-05-29T08:36:19;4.27;;;2.10;;
68583;SDS011;55557;49.220;11.150;2023-05-29T08:38:48;5.77;;;1.83;;
68583;SDS011;55557;49.220;11.150;2023-05-29T08:41:20;4.13;;;2.10;;
68583;SDS011;55557;49.220;11.150;2023-05-29T08:43:47;2.33;;;1.97;;
68583;SDS011;55557;49.220;11.150;2023-05-29T08:46:15;4.07;;;2.17;;
68583;SDS011;55557;49.220;11.150;2023-05-29T08:48:43;3.67;;;1.90;;
68583;SDS011;55557;49.220;11.150;2023-05-29T08:51:13;4.30;;;2.00;;
68583;SDS011;55557;49.220;11.150;2023-05-29T08:53:40;4.27;;;2.30;;
68583;SDS011;55557;49.220;11.150;2023-05-29T08:56:06;5.60;;;1.93;;
68583;SDS011;55557;49.220;11.150;2023-05-29T08:58:33;3.53;;;2.33;;
68583;SDS011;55557;49.220;11.150;2023-05-29T09:00:59;3.50;;;2.53;;
68583;SDS011;55557;49.220;11.150;2023-05-29T09:03:26;6.87;;;2.50;;
68583;SDS011;55557;49.220;11.150;2023-05-29T09:05:52;5.23;;;2.20;;
68583;SDS011;55557;49.220;11.150;2023-05-29T09:08:24;3.37;;;2.20;;
68583;SDS011;55557;49.220;11.150;2023-05-29T09:10:51;3.27;;;2.10;;
68583;SDS011;55557;49.220;11.150;2023-05-29T09:13:17;2.93;;;1.90;;
68583;SDS011;55557;49.220;11.150;2023-05-29T09:15:43;2.57;;;1.80;;
68583;SDS011;55557;49.220;11.150;2023-05-29T09:18:10;3.67;;;1.90;;
68583;SDS011;55557;49.220;11.150;2023-05-29T09:20:36;7.67;;;2.13;;
68583;SDS011;55557;49.220;11.150;2023-05-29T09:23:07;3.63;;;1.77;;
68583;SDS011;55557;49.220;11.150;2023-05-29T09:25:34;3.43;;;1.90;;
68583;SDS011;55557;49.220;11.150;2023-05-29T09:28:02;3.50;;;2.00;;
68583;SDS011;55557;49.220;11.150;2023-05-29T09:30:39;3.60;;;2.20;;
68583;SDS011;55557;49.220;11.150;2023-05-29T09:33:07;2.43;;;2.10;;
68583;SDS011;55557;49.220;11.150;2023-05-29T09:38:02;4.30;;;1.93;;
68583;SDS011;55557;49.220;11.150;2023-05-29T09:40:32;2.37;;;1.50;;
68583;SDS011;55557;49.220;11.150;2023-05-29T09:43:15;2.40;;;1.97;;
68583;SDS011;55557;49.220;11.150;2023-05-29T09:45:45;2.07;;;1.80;;
68583;SDS011;55557;49.220;11.150;2023-05-29T09:48:15;3.80;;;2.17;;
68583;SDS011;55557;49.220;11.150;2023-05-29T09:50:41;5.50;;;2.20;;
68583;SDS011;55557;49.220;11.150;2023-05-29T09:55:44;4.30;;;1.83;;
68583;SDS011;55557;49.220;11.150;2023-05-29T09:58:11;3.03;;;2.00;;
68583;SDS011;55557;49.220;11.150;2023-05-29T10:00:39;2.70;;;2.07;;
68583;SDS011;55557;49.220;11.150;2023-05-29T10:03:05;2.57;;;2.03;;
68583;SDS011;55557;49.220;11.150;2023-05-29T10:05:30;4.33;;;2.20;;
68583;SDS011;55557;49.220;11.150;2023-05-29T10:07:56;3.60;;;2.43;;
68583;SDS011;55557;49.220;11.150;2023-05-29T10:10:26;4.30;;;1.57;;
68583;SDS011;55557;49.220;11.150;2023-05-29T10:12:52;4.03;;;2.20;;
68583;SDS011;55557;49.220;11.150;2023-05-29T10:15:19;3.90;;;2.17;;
68583;SDS011;55557;49.220;11.150;2023-05-29T10:18:04;3.77;;;2.13;;
68583;SDS011;55557;49.220;11.150;2023-05-29T10:20:33;7.73;;;2.03;;
68583;SDS011;55557;49.220;11.150;2023-05-29T10:23:01;7.17;;;2.33;;
68583;SDS011;55557;49.220;11.150;2023-05-29T10:25:29;3.07;;;2.03;;
68583;SDS011;55557;49.220;11.150;2023-05-29T10:27:55;4.47;;;2.43;;
68583;SDS011;55557;49.220;11.150;2023-05-29T10:38:10;4.13;;;2.20;;
68583;SDS011;55557;49.220;11.150;2023-05-29T10:40:37;3.47;;;2.10;;
68583;SDS011;55557;49.220;11.150;2023-05-29T10:43:03;3.90;;;1.60;;
68583;SDS011;55557;49.220;11.150;2023-05-29T10:50:43;3.13;;;2.00;;
68583;SDS011;55557;49.220;11.150;2023-05-29T10:53:10;2.40;;;1.80;;
68583;SDS011;55557;49.220;11.150;2023-05-29T10:55:36;2.27;;;1.80;;
68583;SDS011;55557;49.220;11.150;2023-05-29T10:58:09;2.87;;;2.07;;
68583;SDS011;55557;49.220;11.150;2023-05-29T11:00:41;4.20;;;2.00;;
68583;SDS011;55557;49.220;11.150;2023-05-29T11:03:07;3.23;;;2.07;;
68583;SDS011;55557;49.220;11.150;2023-05-29T11:05:33;4.30;;;2.17;;
68583;SDS011;55557;49.220;11.150;2023-05-29T11:08:00;3.50;;;2.20;;
68583;SDS011;55557;49.220;11.150;2023-05-29T11:13:25;6.07;;;1.90;;
68583;SDS011;55557;49.220;11.150;2023-05-29T11:18:50;3.57;;;2.03;;
68583;SDS011;55557;49.220;11.150;2023-05-29T11:21:29;3.13;;;2.07;;
68583;SDS011;55557;49.220;11.150;2023-05-29T11:24:00;2.37;;;1.80;;
68583;SDS011;55557;49.220;11.150;2023-05-29T11:26:33;2.20;;;1.63;;
68583;SDS011;55557;49.220;11.150;2023-05-29T11:29:00;3.37;;;1.80;;
68583;SDS011;55557;49.220;11.150;2023-05-29T11:31:26;4.93;;;1.70;;
68583;SDS011;55557;49.220;11.150;2023-05-29T11:33:53;5.33;;;2.43;;
68583;SDS011;55557;49.220;11.150;2023-05-29T11:36:21;3.27;;;2.33;;
68583;SDS011;55557;49.220;11.150;2023-05-29T11:38:47;4.33;;;2.10;;
68583;SDS011;55557;49.220;11.150;2023-05-29T11:41:14;3.63;;;2.07;;
68583;SDS011;55557;49.220;11.150;2023-05-29T11:43:42;3.33;;;2.17;;
68583;SDS011;55557;49.220;11.150;2023-05-29T11:46:17;2.37;;;1.90;;
68583;SDS011;55557;49.220;11.150;2023-05-29T11:48:44;2.83;;;2.40;;
68583;SDS011;55557;49.220;11.150;2023-05-29T11:51:10;3.77;;;1.93;;
68583;SDS011;55557;49.220;11.150;2023-05-29T11:53:39;5.97;;;2.20;;
68583;SDS011;55557;49.220;11.150;2023-05-29T11:56:07;2.60;;;2.20;;
68583;SDS011;55557;49.220;11.150;2023-05-29T11:58:33;3.00;;;2.20;;
68583;SDS011;55557;49.220;11.150;2023-05-29T12:00:59;3.33;;;2.20;;
68583;SDS011;55557;49.220;11.150;2023-05-29T12:03:25;3.27;;;2.30;;
68583;SDS011;55557;49.220;11.150;2023-05-29T12:05:52;3.05;;;2.00;;
68583;SDS011;55557;49.220;11.150;2023-05-29T12:08:23;4.83;;;2.00;;
68583;SDS011;55557;49.220;11.150;2023-05-29T12:10:50;2.73;;;2.10;;
68583;SDS011;55557;49.220;11.150;2023-05-29T12:13:18;3.93;;;2.27;;
68583;SDS011;55557;49.220;11.150;2023-05-29T12:15:45;4.90;;;1.90;;
68583;SDS011;55557;49.220;11.150;2023-05-29T12:18:11;2.50;;;1.90;;
68583;SDS011;55557;49.220;11.150;2023-05-29T12:20:37;2.50;;;2.10;;
68583;SDS011;55557;49.220;11.150;2023-05-29T12:23:04;3.27;;;2.10;;
68583;SDS011;55557;49.220;11.150;2023-05-29T12:25:30;2.83;;;2.20;;
68583;SDS011;55557;49.220;11.150;2023-05-29T12:27:56;5.90;;;2.40;;
68583;SDS011;55557;49.220;11.150;2023-05-29T12:30:23;2.63;;;2.00;;
68583;SDS011;55557;49.220;11.150;2023-05-29T12:32:50;3.93;;;2.13;;
68583;SDS011;55557;49.220;11.150;2023-05-29T12:35:18;3.60;;;2.20;;
68583;SDS011;55557;49.220;11.150;2023-05-29T12:37:44;3.40;;;2.40;;
68583;SDS011;55557;49.220;11.150;2023-05-29T12:40:15;3.40;;;1.80;;
68583;SDS011;55557;49.220;11.150;2023-05-29T12:42:41;2.60;;;2.23;;
68583;SDS011;55557;49.220;11.150;2023-05-29T12:45:07;4.30;;;2.67;;
68583;SDS011;55557;49.220;11.150;2023-05-29T12:47:34;5.87;;;2.73;;
68583;SDS011;55557;49.220;11.150;2023-05-29T12:50:19;2.93;;;2.20;;
68583;SDS011;55557;49.220;11.150;2023-05-29T12:55:28;4.47;;;2.10;;
68583;SDS011;55557;49.220;11.150;2023-05-29T12:57:54;2.50;;;1.87;;
68583;SDS011;55557;49.220;11.150;2023-05-29T13:00:21;3.43;;;2.10;;
68583;SDS011;55557;49.220;11.150;2023-05-29T13:02:47;5.60;;;2.27;;
68583;SDS011;55557;49.220;11.150;2023-05-29T13:05:14;3.87;;;2.27;;
68583;SDS011;55557;49.220;11.150;2023-05-29T13:07:41;11.13;;;2.10;;
68583;SDS011;55557;49.220;11.150;2023-05-29T13:10:07;2.70;;;2.07;;
68583;SDS011;55557;49.220;11.150;2023-05-29T13:12:34;4.10;;;2.00;;
68583;SDS011;55557;49.220;11.150;2023-05-29T13:15:00;3.17;;;2.10;;
68583;SDS011;55557;49.220;11.150;2023-05-29T13:17:26;2.73;;;2.13;;
68583;SDS011;55557;49.220;11.150;2023-05-29T13:19:52;4.03;;;2.23;;
68583;SDS011;55557;49.220;11.150;2023-05-29T13:22:17;4.77;;;2.63;;
68583;SDS011;55557;49.220;11.150;2023-05-29T13:24:44;5.93;;;2.20;;
68583;SDS011;55557;49.220;11.150;2023-05-29T13:27:11;3.10;;;1.83;;
68583;SDS011;55557;49.220;11.150;2023-05-29T13:29:42;6.77;;;2.10;;
68583;SDS011;55557;49.220;11.150;2023-05-29T13:32:08;6.30;;;2.30;;
68583;SDS011;55557;49.220;11.150;2023-05-29T13:34:34;2.90;;;1.90;;
68583;SDS011;55557;49.220;11.150;2023-05-29T13:37:00;2.00;;;1.80;;
68583;SDS011;55557;49.220;11.150;2023-05-29T13:39:27;1.77;;;1.60;;
68583;SDS011;55557;49.220;11.150;2023-05-29T13:41:53;5.17;;;2.20;;
68583;SDS011;55557;49.220;11.150;2023-05-29T13:44:19;7.73;;;1.80;;
68583;SDS011;55557;49.220;11.150;2023-05-29T13:46:46;2.67;;;1.80;;
68583;SDS011;55557;49.220;11.150;2023-05-29T13:49:11;2.67;;;1.80;;
68583;SDS011;55557;49.220;11.150;2023-05-29T13:51:37;5.80;;;2.00;;
68583;SDS011;55557;49.220;11.150;2023-05-29T13:54:03;4.17;;;2.10;;
68583;SDS011;55557;49.220;11.150;2023-05-29T13:56:30;2.63;;;1.77;;
68583;SDS011;55557;49.220;11.150;2023-05-29T13:58:56;2.40;;;1.80;;
68583;SDS011;55557;49.220;11.150;2023-05-29T14:01:29;4.13;;;1.90;;
68583;SDS011;55557;49.220;11.150;2023-05-29T14:03:55;2.80;;;2.00;;
68583;SDS011;55557;49.220;11.150;2023-05-29T14:06:21;2.63;;;1.80;;
68583;SDS011;55557;49.220;11.150;2023-05-29T14:08:47;2.83;;;1.83;;
68583;SDS011;55557;49.220;11.150;2023-05-29T14:11:13;2.90;;;2.00;;
68583;SDS011;55557;49.220;11.150;2023-05-29T14:13:39;3.90;;;1.77;;
68583;SDS011;55557;49.220;11.150;2023-05-29T14:16:05;2.37;;;1.60;;
68583;SDS011;55557;49.220;11.150;2023-05-29T14:18:31;3.03;;;2.10;;
68583;SDS011;55557;49.220;11.150;2023-05-29T14:20:57;2.93;;;1.83;;
68583;SDS011;55557;49.220;11.150;2023-05-29T14:23:23;2.53;;;1.90;;
68583;SDS011;55557;49.220;11.150;2023-05-29T14:25:49;3.83;;;1.80;;
68583;SDS011;55557;49.220;11.150;2023-05-29T14:28:16;8.63;;;2.00;;
68583;SDS011;55557;49.220;11.150;2023-05-29T14:30:42;3.63;;;2.00;;
68583;SDS011;55557;49.220;11.150;2023-05-29T14:33:08;1.90;;;1.70;;
68583;SDS011;55557;49.220;11.150;2023-05-29T14:35:34;2.23;;;1.60;;
68583;SDS011;55557;49.220;11.150;2023-05-29T14:38:01;2.67;;;2.17;;
68583;SDS011;55557;49.220;11.150;2023-05-29T14:40:27;2.93;;;1.70;;
68583;SDS011;55557;49.220;11.150;2023-05-29T14:42:53;2.83;;;1.83;;
68583;SDS011;55557;49.220;11.150;2023-05-29T14:45:19;2.47;;;1.97;;
68583;SDS011;55557;49.220;11.150;2023-05-29T14:47:45;3.23;;;1.80;;
68583;SDS011;55557;49.220;11.150;2023-05-29T14:50:11;4.10;;;1.63;;
68583;SDS011;55557;49.220;11.150;2023-05-29T14:52:37;8.73;;;1.80;;
68583;SDS011;55557;49.220;11.150;2023-05-29T14:55:04;2.17;;;1.60;;
68583;SDS011;55557;49.220;11.150;2023-05-29T14:57:31;3.67;;;2.00;;
68583;SDS011;55557;49.220;11.150;2023-05-29T14:59:58;4.60;;;2.80;;
68583;SDS011;55557;49.220;11.150;2023-05-29T15:02:24;3.40;;;1.83;;
68583;SDS011;55557;49.220;11.150;2023-05-29T15:04:50;4.50;;;1.90;;